sensor_id;sensor_type;location;lat;lon;timestamp;temperature;humidity
28177;DHT22;15461;41.652;9.378;2022-08-06T00:01:51;25.90;99.90
28177;DHT22;15461;41.652;9.378;2022-08-06T00:04:17;25.90;99.90
28177;DHT22;15461;41.652;9.378;2022-08-06T00:06:43;25.90;99.90
28177;DHT22;15461;41.652;9.378;2022-08-06T00:09:09;25.90;99.90
28177;DHT22;15461;41.652;9.378;2022-08-06T00:11:38;25.80;99.90
28177;DHT22;15461;41.652;9.378;2022-08-06T00:14:05;25.80;99.90
28177;DHT22;15461;41.652;9.378;2022-08-06T00:16:31;25.80;99.90
28177;DHT22;15461;41.652;9.378;2022-08-06T00:18:58;25.70;99.90
28177;DHT22;15461;41.652;9.378;2022-08-06T00:21:24;25.70;99.90
28177;DHT22;15461;41.652;9.378;2022-08-06T00:23:51;25.60;99.90
28177;DHT22;15461;41.652;9.378;2022-08-06T00:26:17;25.60;99.90
28177;DHT22;15461;41.652;9.378;2022-08-06T00:28:44;25.60;99.90
28177;DHT22;15461;41.652;9.378;2022-08-06T00:31:10;25.50;99.90
28177;DHT22;15461;41.652;9.378;2022-08-06T00:33:37;25.50;99.90
28177;DHT22;15461;41.652;9.378;2022-08-06T00:36:04;25.40;99.90
28177;DHT22;15461;41.652;9.378;2022-08-06T00:38:30;25.30;99.90
28177;DHT22;15461;41.652;9.378;2022-08-06T00:40:57;25.20;99.90
28177;DHT22;15461;41.652;9.378;2022-08-06T00:43:23;25.20;99.90
28177;DHT22;15461;41.652;9.378;2022-08-06T00:45:49;25.20;99.90
28177;DHT22;15461;41.652;9.378;2022-08-06T00:48:15;25.20;99.90
28177;DHT22;15461;41.652;9.378;2022-08-06T00:50:41;25.20;99.90
28177;DHT22;15461;41.652;9.378;2022-08-06T00:53:07;25.10;99.90
28177;DHT22;15461;41.652;9.378;2022-08-06T00:55:34;25.10;99.90
28177;DHT22;15461;41.652;9.378;2022-08-06T00:58:00;25.10;99.90
28177;DHT22;15461;41.652;9.378;2022-08-06T01:00:26;25.10;99.90
28177;DHT22;15461;41.652;9.378;2022-08-06T01:02:52;25.10;99.90
28177;DHT22;15461;41.652;9.378;2022-08-06T01:05:18;25.10;99.90
28177;DHT22;15461;41.652;9.378;2022-08-06T01:07:45;25.20;99.90
28177;DHT22;15461;41.652;9.378;2022-08-06T01:10:11;25.10;99.90
28177;DHT22;15461;41.652;9.378;2022-08-06T01:12:37;25.10;99.90
28177;DHT22;15461;41.652;9.378;2022-08-06T01:15:05;25.00;99.90
28177;DHT22;15461;41.652;9.378;2022-08-06T01:28:42;24.80;99.90
28177;DHT22;15461;41.652;9.378;2022-08-06T01:31:11;24.70;99.90
28177;DHT22;15461;41.652;9.378;2022-08-06T01:33:46;24.70;99.90
28177;DHT22;15461;41.652;9.378;2022-08-06T01:36:27;24.60;99.90
28177;DHT22;15461;41.652;9.378;2022-08-06T01:38:58;24.60;99.90
28177;DHT22;15461;41.652;9.378;2022-08-06T01:41:38;24.60;99.90
28177;DHT22;15461;41.652;9.378;2022-08-06T01:44:09;24.60;99.90
28177;DHT22;15461;41.652;9.378;2022-08-06T01:46:39;24.60;99.90
28177;DHT22;15461;41.652;9.378;2022-08-06T01:49:08;24.50;99.90
28177;DHT22;15461;41.652;9.378;2022-08-06T01:51:37;24.40;99.90
28177;DHT22;15461;41.652;9.378;2022-08-06T01:54:07;24.40;99.90
28177;DHT22;15461;41.652;9.378;2022-08-06T01:56:38;24.40;99.90
28177;DHT22;15461;41.652;9.378;2022-08-06T01:59:06;24.40;99.90
28177;DHT22;15461;41.652;9.378;2022-08-06T02:01:35;24.40;99.90
28177;DHT22;15461;41.652;9.378;2022-08-06T02:04:03;24.40;99.90
28177;DHT22;15461;41.652;9.378;2022-08-06T02:06:35;24.30;99.90
28177;DHT22;15461;41.652;9.378;2022-08-06T02:09:09;24.30;99.90
28177;DHT22;15461;41.652;9.378;2022-08-06T02:11:39;24.20;99.90
28177;DHT22;15461;41.652;9.378;2022-08-06T02:14:06;24.20;99.90
28177;DHT22;15461;41.652;9.378;2022-08-06T02:16:41;24.20;99.90
28177;DHT22;15461;41.652;9.378;2022-08-06T02:19:10;24.10;99.90
28177;DHT22;15461;41.652;9.378;2022-08-06T02:21:38;24.20;99.90
28177;DHT22;15461;41.652;9.378;2022-08-06T02:24:08;24.10;99.90
28177;DHT22;15461;41.652;9.378;2022-08-06T02:26:39;24.10;99.90
28177;DHT22;15461;41.652;9.378;2022-08-06T02:29:14;24.10;99.90
28177;DHT22;15461;41.652;9.378;2022-08-06T02:31:43;24.10;99.90
28177;DHT22;15461;41.652;9.378;2022-08-06T02:34:10;24.00;99.90
28177;DHT22;15461;41.652;9.378;2022-08-06T02:36:41;24.00;99.90
28177;DHT22;15461;41.652;9.378;2022-08-06T02:39:15;24.00;99.90
28177;DHT22;15461;41.652;9.378;2022-08-06T02:41:49;23.90;99.90
28177;DHT22;15461;41.652;9.378;2022-08-06T02:47:11;23.90;99.90
28177;DHT22;15461;41.652;9.378;2022-08-06T02:49:43;23.90;99.90
28177;DHT22;15461;41.652;9.378;2022-08-06T02:52:48;23.90;99.90
28177;DHT22;15461;41.652;9.378;2022-08-06T02:55:18;23.80;99.90
28177;DHT22;15461;41.652;9.378;2022-08-06T02:57:51;23.80;99.90
28177;DHT22;15461;41.652;9.378;2022-08-06T03:00:19;23.80;99.90
28177;DHT22;15461;41.652;9.378;2022-08-06T03:02:47;23.80;99.90
28177;DHT22;15461;41.652;9.378;2022-08-06T03:05:17;23.80;99.90
28177;DHT22;15461;41.652;9.378;2022-08-06T03:07:48;23.80;99.90
28177;DHT22;15461;41.652;9.378;2022-08-06T03:10:18;23.70;99.90
28177;DHT22;15461;41.652;9.378;2022-08-06T03:12:47;23.70;99.90
28177;DHT22;15461;41.652;9.378;2022-08-06T03:15:15;23.80;99.90
28177;DHT22;15461;41.652;9.378;2022-08-06T03:17:44;23.80;99.90
28177;DHT22;15461;41.652;9.378;2022-08-06T03:20:14;23.90;99.90
28177;DHT22;15461;41.652;9.378;2022-08-06T03:22:42;24.00;99.90
28177;DHT22;15461;41.652;9.378;2022-08-06T03:25:12;23.90;99.90
28177;DHT22;15461;41.652;9.378;2022-08-06T03:27:41;24.00;99.90
28177;DHT22;15461;41.652;9.378;2022-08-06T03:30:15;24.00;99.90
28177;DHT22;15461;41.652;9.378;2022-08-06T03:32:42;24.00;99.90
28177;DHT22;15461;41.652;9.378;2022-08-06T03:35:09;24.10;99.90
28177;DHT22;15461;41.652;9.378;2022-08-06T03:37:38;24.10;99.90
28177;DHT22;15461;41.652;9.378;2022-08-06T03:40:06;24.10;99.90
28177;DHT22;15461;41.652;9.378;2022-08-06T03:42:34;24.10;99.90
28177;DHT22;15461;41.652;9.378;2022-08-06T03:45:00;24.00;99.90
28177;DHT22;15461;41.652;9.378;2022-08-06T03:47:34;23.90;99.90
28177;DHT22;15461;41.652;9.378;2022-08-06T03:50:10;23.90;99.90
28177;DHT22;15461;41.652;9.378;2022-08-06T03:52:45;23.90;99.90
28177;DHT22;15461;41.652;9.378;2022-08-06T03:55:23;24.00;99.90
28177;DHT22;15461;41.652;9.378;2022-08-06T03:57:52;24.00;99.90
28177;DHT22;15461;41.652;9.378;2022-08-06T04:00:21;24.00;99.90
28177;DHT22;15461;41.652;9.378;2022-08-06T04:02:52;24.00;99.90
28177;DHT22;15461;41.652;9.378;2022-08-06T04:05:20;24.00;99.90
28177;DHT22;15461;41.652;9.378;2022-08-06T04:07:49;23.90;99.90
28177;DHT22;15461;41.652;9.378;2022-08-06T04:10:18;24.00;99.90
28177;DHT22;15461;41.652;9.378;2022-08-06T04:12:45;24.00;99.90
28177;DHT22;15461;41.652;9.378;2022-08-06T04:15:12;24.10;99.90
28177;DHT22;15461;41.652;9.378;2022-08-06T04:17:42;24.10;99.90
28177;DHT22;15461;41.652;9.378;2022-08-06T04:20:11;24.20;99.90
28177;DHT22;15461;41.652;9.378;2022-08-06T04:22:42;24.30;99.90
28177;DHT22;15461;41.652;9.378;2022-08-06T04:25:08;24.40;99.90
28177;DHT22;15461;41.652;9.378;2022-08-06T04:27:38;24.50;99.90
28177;DHT22;15461;41.652;9.378;2022-08-06T04:30:06;24.50;99.90
28177;DHT22;15461;41.652;9.378;2022-08-06T04:32:33;24.50;99.90
28177;DHT22;15461;41.652;9.378;2022-08-06T04:35:06;24.50;99.90
28177;DHT22;15461;41.652;9.378;2022-08-06T04:37:33;24.60;99.90
28177;DHT22;15461;41.652;9.378;2022-08-06T04:40:02;24.60;99.90
28177;DHT22;15461;41.652;9.378;2022-08-06T04:42:30;24.70;99.90
28177;DHT22;15461;41.652;9.378;2022-08-06T04:44:58;24.70;99.90
28177;DHT22;15461;41.652;9.378;2022-08-06T04:47:28;24.80;99.90
28177;DHT22;15461;41.652;9.378;2022-08-06T04:49:55;24.80;99.90
28177;DHT22;15461;41.652;9.378;2022-08-06T04:52:23;24.90;99.90
28177;DHT22;15461;41.652;9.378;2022-08-06T04:54:50;25.00;99.90
28177;DHT22;15461;41.652;9.378;2022-08-06T04:57:18;25.00;99.90
28177;DHT22;15461;41.652;9.378;2022-08-06T04:59:45;25.00;99.90
28177;DHT22;15461;41.652;9.378;2022-08-06T05:02:12;25.00;99.90
28177;DHT22;15461;41.652;9.378;2022-08-06T05:04:40;25.10;99.90
28177;DHT22;15461;41.652;9.378;2022-08-06T05:07:19;25.10;99.90
28177;DHT22;15461;41.652;9.378;2022-08-06T05:09:46;25.20;99.90
28177;DHT22;15461;41.652;9.378;2022-08-06T05:12:24;25.20;99.90
28177;DHT22;15461;41.652;9.378;2022-08-06T05:15:07;25.30;99.90
28177;DHT22;15461;41.652;9.378;2022-08-06T05:17:38;25.40;99.90
28177;DHT22;15461;41.652;9.378;2022-08-06T05:20:27;25.50;99.90
28177;DHT22;15461;41.652;9.378;2022-08-06T05:23:06;25.60;99.90
28177;DHT22;15461;41.652;9.378;2022-08-06T05:25:35;25.70;99.90
28177;DHT22;15461;41.652;9.378;2022-08-06T05:28:05;25.70;99.90
28177;DHT22;15461;41.652;9.378;2022-08-06T05:30:32;25.80;99.90
28177;DHT22;15461;41.652;9.378;2022-08-06T05:32:58;25.90;99.90
28177;DHT22;15461;41.652;9.378;2022-08-06T05:35:24;26.00;99.90
28177;DHT22;15461;41.652;9.378;2022-08-06T05:37:52;26.10;99.90
28177;DHT22;15461;41.652;9.378;2022-08-06T05:40:20;26.20;99.90
28177;DHT22;15461;41.652;9.378;2022-08-06T05:42:46;26.20;99.90
28177;DHT22;15461;41.652;9.378;2022-08-06T05:45:12;26.30;99.90
28177;DHT22;15461;41.652;9.378;2022-08-06T05:47:49;26.40;99.90
28177;DHT22;15461;41.652;9.378;2022-08-06T05:50:18;26.40;99.90
28177;DHT22;15461;41.652;9.378;2022-08-06T05:53:03;26.40;99.90
28177;DHT22;15461;41.652;9.378;2022-08-06T05:55:45;26.50;99.90
28177;DHT22;15461;41.652;9.378;2022-08-06T05:58:15;26.70;99.90
28177;DHT22;15461;41.652;9.378;2022-08-06T06:00:43;26.70;99.90
28177;DHT22;15461;41.652;9.378;2022-08-06T06:03:15;26.80;99.90
28177;DHT22;15461;41.652;9.378;2022-08-06T06:05:43;26.90;99.90
28177;DHT22;15461;41.652;9.378;2022-08-06T06:08:10;27.00;99.90
28177;DHT22;15461;41.652;9.378;2022-08-06T06:10:38;27.10;99.90
28177;DHT22;15461;41.652;9.378;2022-08-06T06:13:06;27.30;99.90
28177;DHT22;15461;41.652;9.378;2022-08-06T06:15:38;27.40;99.90
28177;DHT22;15461;41.652;9.378;2022-08-06T06:18:47;27.50;99.90
28177;DHT22;15461;41.652;9.378;2022-08-06T06:21:30;27.60;99.90
28177;DHT22;15461;41.652;9.378;2022-08-06T06:26:37;27.80;99.90
28177;DHT22;15461;41.652;9.378;2022-08-06T06:35:03;28.10;99.90
28177;DHT22;15461;41.652;9.378;2022-08-06T06:40:18;28.20;99.90
28177;DHT22;15461;41.652;9.378;2022-08-06T06:45:46;28.50;99.90
28177;DHT22;15461;41.652;9.378;2022-08-06T06:48:23;28.70;99.90
28177;DHT22;15461;41.652;9.378;2022-08-06T06:50:54;28.80;99.90
28177;DHT22;15461;41.652;9.378;2022-08-06T06:53:23;28.90;99.90
28177;DHT22;15461;41.652;9.378;2022-08-06T06:55:53;29.00;99.90
28177;DHT22;15461;41.652;9.378;2022-08-06T07:01:05;29.20;99.90
28177;DHT22;15461;41.652;9.378;2022-08-06T07:03:33;29.30;99.90
28177;DHT22;15461;41.652;9.378;2022-08-06T07:06:02;29.40;99.90
28177;DHT22;15461;41.652;9.378;2022-08-06T07:08:29;29.50;99.90
28177;DHT22;15461;41.652;9.378;2022-08-06T07:10:57;29.70;99.90
28177;DHT22;15461;41.652;9.378;2022-08-06T07:13:24;29.90;99.90
28177;DHT22;15461;41.652;9.378;2022-08-06T07:15:52;30.00;99.90
28177;DHT22;15461;41.652;9.378;2022-08-06T07:18:19;30.10;99.90
28177;DHT22;15461;41.652;9.378;2022-08-06T07:20:46;30.20;99.90
28177;DHT22;15461;41.652;9.378;2022-08-06T07:23:15;30.30;99.90
28177;DHT22;15461;41.652;9.378;2022-08-06T07:25:44;30.30;99.90
28177;DHT22;15461;41.652;9.378;2022-08-06T07:28:12;30.60;99.90
28177;DHT22;15461;41.652;9.378;2022-08-06T07:30:41;30.70;99.90
28177;DHT22;15461;41.652;9.378;2022-08-06T07:33:08;30.90;99.90
28177;DHT22;15461;41.652;9.378;2022-08-06T07:35:37;31.00;99.90
28177;DHT22;15461;41.652;9.378;2022-08-06T07:38:06;31.10;99.90
28177;DHT22;15461;41.652;9.378;2022-08-06T07:40:43;31.30;99.90
28177;DHT22;15461;41.652;9.378;2022-08-06T07:43:13;31.40;99.90
28177;DHT22;15461;41.652;9.378;2022-08-06T07:45:41;31.60;99.90
28177;DHT22;15461;41.652;9.378;2022-08-06T07:48:12;31.70;99.90
28177;DHT22;15461;41.652;9.378;2022-08-06T07:50:43;31.80;99.90
28177;DHT22;15461;41.652;9.378;2022-08-06T07:53:11;31.90;99.90
28177;DHT22;15461;41.652;9.378;2022-08-06T07:55:38;32.00;99.90
28177;DHT22;15461;41.652;9.378;2022-08-06T07:58:05;32.00;99.90
28177;DHT22;15461;41.652;9.378;2022-08-06T08:00:32;32.00;99.90
28177;DHT22;15461;41.652;9.378;2022-08-06T08:03:00;32.00;99.90
28177;DHT22;15461;41.652;9.378;2022-08-06T08:05:45;32.10;99.90
28177;DHT22;15461;41.652;9.378;2022-08-06T08:08:31;32.20;99.90
28177;DHT22;15461;41.652;9.378;2022-08-06T08:10:57;32.20;99.90
28177;DHT22;15461;41.652;9.378;2022-08-06T08:13:24;32.20;99.90
28177;DHT22;15461;41.652;9.378;2022-08-06T08:15:50;32.20;99.90
28177;DHT22;15461;41.652;9.378;2022-08-06T08:18:17;32.20;99.90
28177;DHT22;15461;41.652;9.378;2022-08-06T08:20:44;32.10;99.90
28177;DHT22;15461;41.652;9.378;2022-08-06T08:23:12;32.20;99.90
28177;DHT22;15461;41.652;9.378;2022-08-06T08:25:39;32.20;99.90
28177;DHT22;15461;41.652;9.378;2022-08-06T08:28:06;32.30;99.90
28177;DHT22;15461;41.652;9.378;2022-08-06T08:30:32;32.30;99.90
28177;DHT22;15461;41.652;9.378;2022-08-06T08:32:58;32.50;99.90
28177;DHT22;15461;41.652;9.378;2022-08-06T08:35:24;32.60;99.90
28177;DHT22;15461;41.652;9.378;2022-08-06T08:37:50;32.80;99.90
28177;DHT22;15461;41.652;9.378;2022-08-06T08:40:16;33.00;99.90
28177;DHT22;15461;41.652;9.378;2022-08-06T08:42:46;33.00;99.90
28177;DHT22;15461;41.652;9.378;2022-08-06T08:45:12;33.10;99.90
28177;DHT22;15461;41.652;9.378;2022-08-06T08:47:45;33.30;99.90
28177;DHT22;15461;41.652;9.378;2022-08-06T08:50:12;33.10;99.90
28177;DHT22;15461;41.652;9.378;2022-08-06T08:52:39;33.10;99.90
28177;DHT22;15461;41.652;9.378;2022-08-06T08:55:10;33.20;99.90
28177;DHT22;15461;41.652;9.378;2022-08-06T08:57:37;33.30;99.90
28177;DHT22;15461;41.652;9.378;2022-08-06T09:00:06;33.50;99.90
28177;DHT22;15461;41.652;9.378;2022-08-06T09:02:32;33.70;99.90
28177;DHT22;15461;41.652;9.378;2022-08-06T09:05:01;33.60;99.90
28177;DHT22;15461;41.652;9.378;2022-08-06T09:07:28;33.50;99.90
28177;DHT22;15461;41.652;9.378;2022-08-06T09:09:55;33.50;99.90
28177;DHT22;15461;41.652;9.378;2022-08-06T09:12:22;33.40;99.90
28177;DHT22;15461;41.652;9.378;2022-08-06T09:14:48;33.60;99.90
28177;DHT22;15461;41.652;9.378;2022-08-06T09:17:14;33.70;99.90
28177;DHT22;15461;41.652;9.378;2022-08-06T09:19:40;33.80;99.90
28177;DHT22;15461;41.652;9.378;2022-08-06T09:22:08;33.90;99.90
28177;DHT22;15461;41.652;9.378;2022-08-06T09:24:35;33.80;99.90
28177;DHT22;15461;41.652;9.378;2022-08-06T09:27:15;33.80;99.90
28177;DHT22;15461;41.652;9.378;2022-08-06T09:29:54;33.60;99.90
28177;DHT22;15461;41.652;9.378;2022-08-06T09:32:43;33.70;99.90
28177;DHT22;15461;41.652;9.378;2022-08-06T09:37:50;33.90;99.90
28177;DHT22;15461;41.652;9.378;2022-08-06T09:40:19;34.00;99.90
28177;DHT22;15461;41.652;9.378;2022-08-06T09:42:47;34.00;99.90
28177;DHT22;15461;41.652;9.378;2022-08-06T09:45:18;33.70;99.90
28177;DHT22;15461;41.652;9.378;2022-08-06T09:47:45;33.60;99.90
28177;DHT22;15461;41.652;9.378;2022-08-06T09:50:13;33.40;99.90
28177;DHT22;15461;41.652;9.378;2022-08-06T09:52:39;33.40;99.90
28177;DHT22;15461;41.652;9.378;2022-08-06T09:55:06;33.20;99.90
28177;DHT22;15461;41.652;9.378;2022-08-06T09:57:45;33.40;99.90
28177;DHT22;15461;41.652;9.378;2022-08-06T10:00:24;33.50;99.90
28177;DHT22;15461;41.652;9.378;2022-08-06T10:02:55;33.70;99.90
28177;DHT22;15461;41.652;9.378;2022-08-06T10:05:23;33.90;99.90
28177;DHT22;15461;41.652;9.378;2022-08-06T10:10:45;33.90;99.90
28177;DHT22;15461;41.652;9.378;2022-08-06T10:13:22;33.60;99.90
28177;DHT22;15461;41.652;9.378;2022-08-06T10:15:57;33.80;99.90
28177;DHT22;15461;41.652;9.378;2022-08-06T10:18:41;33.60;99.90
28177;DHT22;15461;41.652;9.378;2022-08-06T10:21:09;33.40;99.90
28177;DHT22;15461;41.652;9.378;2022-08-06T10:23:38;33.50;99.90
28177;DHT22;15461;41.652;9.378;2022-08-06T10:26:06;33.70;99.90
28177;DHT22;15461;41.652;9.378;2022-08-06T10:28:34;33.70;99.90
28177;DHT22;15461;41.652;9.378;2022-08-06T10:31:06;33.70;99.90
28177;DHT22;15461;41.652;9.378;2022-08-06T10:33:53;33.60;99.90
28177;DHT22;15461;41.652;9.378;2022-08-06T10:36:36;33.20;99.90
28177;DHT22;15461;41.652;9.378;2022-08-06T10:39:04;33.10;99.90
28177;DHT22;15461;41.652;9.378;2022-08-06T10:41:32;33.20;99.90
28177;DHT22;15461;41.652;9.378;2022-08-06T10:44:02;33.20;99.90
28177;DHT22;15461;41.652;9.378;2022-08-06T10:46:28;33.20;99.90
28177;DHT22;15461;41.652;9.378;2022-08-06T10:48:56;33.30;99.90
28177;DHT22;15461;41.652;9.378;2022-08-06T10:51:23;33.30;99.90
28177;DHT22;15461;41.652;9.378;2022-08-06T10:53:49;33.50;99.90
28177;DHT22;15461;41.652;9.378;2022-08-06T10:56:16;33.70;99.90
28177;DHT22;15461;41.652;9.378;2022-08-06T10:58:42;33.40;99.90
28177;DHT22;15461;41.652;9.378;2022-08-06T11:06:41;33.40;99.90
28177;DHT22;15461;41.652;9.378;2022-08-06T11:09:31;33.40;99.90
28177;DHT22;15461;41.652;9.378;2022-08-06T11:14:37;33.20;99.90
28177;DHT22;15461;41.652;9.378;2022-08-06T11:17:04;33.20;99.90
28177;DHT22;15461;41.652;9.378;2022-08-06T11:19:45;33.00;99.90
28177;DHT22;15461;41.652;9.378;2022-08-06T11:22:47;32.90;99.90
28177;DHT22;15461;41.652;9.378;2022-08-06T11:25:13;32.90;99.90
28177;DHT22;15461;41.652;9.378;2022-08-06T11:27:55;32.90;99.90
28177;DHT22;15461;41.652;9.378;2022-08-06T11:30:51;33.00;99.90
28177;DHT22;15461;41.652;9.378;2022-08-06T11:36:07;32.90;99.90
28177;DHT22;15461;41.652;9.378;2022-08-06T11:43:47;33.40;99.90
28177;DHT22;15461;41.652;9.378;2022-08-06T11:46:23;33.30;99.90
28177;DHT22;15461;41.652;9.378;2022-08-06T11:54:18;32.90;99.90
28177;DHT22;15461;41.652;9.378;2022-08-06T11:59:45;32.80;99.90
28177;DHT22;15461;41.652;9.378;2022-08-06T12:04:59;32.50;99.90
28177;DHT22;15461;41.652;9.378;2022-08-06T12:07:28;32.70;99.90
28177;DHT22;15461;41.652;9.378;2022-08-06T12:12:45;32.70;99.90
28177;DHT22;15461;41.652;9.378;2022-08-06T12:17:39;32.30;99.90
28177;DHT22;15461;41.652;9.378;2022-08-06T12:20:06;32.30;99.90
28177;DHT22;15461;41.652;9.378;2022-08-06T12:22:34;32.50;99.90
28177;DHT22;15461;41.652;9.378;2022-08-06T12:25:05;32.70;99.90
28177;DHT22;15461;41.652;9.378;2022-08-06T12:27:34;32.90;99.90
28177;DHT22;15461;41.652;9.378;2022-08-06T12:30:02;32.50;99.90
28177;DHT22;15461;41.652;9.378;2022-08-06T12:32:34;32.50;99.90
28177;DHT22;15461;41.652;9.378;2022-08-06T12:35:02;32.70;99.90
28177;DHT22;15461;41.652;9.378;2022-08-06T12:40:07;32.80;99.90
28177;DHT22;15461;41.652;9.378;2022-08-06T12:43:10;32.70;99.90
28177;DHT22;15461;41.652;9.378;2022-08-06T12:45:36;32.90;99.90
28177;DHT22;15461;41.652;9.378;2022-08-06T12:50:36;33.10;99.90
28177;DHT22;15461;41.652;9.378;2022-08-06T12:53:07;33.00;99.90
28177;DHT22;15461;41.652;9.378;2022-08-06T12:55:54;33.00;99.90
28177;DHT22;15461;41.652;9.378;2022-08-06T12:58:29;33.20;99.90
28177;DHT22;15461;41.652;9.378;2022-08-06T13:00:57;32.80;99.90
28177;DHT22;15461;41.652;9.378;2022-08-06T13:03:24;32.90;99.90
28177;DHT22;15461;41.652;9.378;2022-08-06T13:05:53;33.00;99.90
28177;DHT22;15461;41.652;9.378;2022-08-06T13:08:20;32.80;99.90
28177;DHT22;15461;41.652;9.378;2022-08-06T13:10:48;32.70;99.90
28177;DHT22;15461;41.652;9.378;2022-08-06T13:13:16;32.80;99.90
28177;DHT22;15461;41.652;9.378;2022-08-06T13:15:42;32.90;99.90
28177;DHT22;15461;41.652;9.378;2022-08-06T13:18:24;33.10;99.90
28177;DHT22;15461;41.652;9.378;2022-08-06T13:20:50;32.90;99.90
28177;DHT22;15461;41.652;9.378;2022-08-06T13:23:28;32.90;99.90
28177;DHT22;15461;41.652;9.378;2022-08-06T13:25:54;32.90;99.90
28177;DHT22;15461;41.652;9.378;2022-08-06T13:28:23;32.90;99.90
28177;DHT22;15461;41.652;9.378;2022-08-06T13:30:50;32.80;99.90
28177;DHT22;15461;41.652;9.378;2022-08-06T13:33:21;32.40;99.90
28177;DHT22;15461;41.652;9.378;2022-08-06T13:36:03;32.30;99.90
28177;DHT22;15461;41.652;9.378;2022-08-06T13:38:32;32.50;99.90
28177;DHT22;15461;41.652;9.378;2022-08-06T13:40:59;32.70;99.90
28177;DHT22;15461;41.652;9.378;2022-08-06T13:43:36;32.80;99.90
28177;DHT22;15461;41.652;9.378;2022-08-06T13:46:10;32.90;99.90
28177;DHT22;15461;41.652;9.378;2022-08-06T13:48:36;32.50;99.90
28177;DHT22;15461;41.652;9.378;2022-08-06T13:51:02;32.60;99.90
28177;DHT22;15461;41.652;9.378;2022-08-06T13:53:29;32.50;99.90
28177;DHT22;15461;41.652;9.378;2022-08-06T13:55:55;32.50;99.90
28177;DHT22;15461;41.652;9.378;2022-08-06T13:58:20;32.60;99.90
28177;DHT22;15461;41.652;9.378;2022-08-06T14:00:47;32.50;99.90
28177;DHT22;15461;41.652;9.378;2022-08-06T14:03:13;32.40;99.90
28177;DHT22;15461;41.652;9.378;2022-08-06T14:05:39;32.20;99.90
28177;DHT22;15461;41.652;9.378;2022-08-06T14:08:05;32.20;99.90
28177;DHT22;15461;41.652;9.378;2022-08-06T14:10:31;32.30;99.90
28177;DHT22;15461;41.652;9.378;2022-08-06T14:12:57;32.30;99.90
28177;DHT22;15461;41.652;9.378;2022-08-06T14:15:46;32.40;99.90
28177;DHT22;15461;41.652;9.378;2022-08-06T14:18:16;32.50;99.90
28177;DHT22;15461;41.652;9.378;2022-08-06T14:20:42;32.60;99.90
28177;DHT22;15461;41.652;9.378;2022-08-06T14:23:09;32.60;99.90
28177;DHT22;15461;41.652;9.378;2022-08-06T14:25:35;32.60;99.90
28177;DHT22;15461;41.652;9.378;2022-08-06T14:28:03;32.60;99.90
28177;DHT22;15461;41.652;9.378;2022-08-06T14:30:29;32.60;99.90
28177;DHT22;15461;41.652;9.378;2022-08-06T14:32:55;32.70;99.90
28177;DHT22;15461;41.652;9.378;2022-08-06T14:35:21;32.60;99.90
28177;DHT22;15461;41.652;9.378;2022-08-06T14:37:48;32.60;99.90
28177;DHT22;15461;41.652;9.378;2022-08-06T14:40:15;32.70;99.90
28177;DHT22;15461;41.652;9.378;2022-08-06T14:42:41;32.70;99.90
28177;DHT22;15461;41.652;9.378;2022-08-06T14:45:45;32.50;99.90
28177;DHT22;15461;41.652;9.378;2022-08-06T14:48:11;32.50;99.90
28177;DHT22;15461;41.652;9.378;2022-08-06T14:50:37;32.50;99.90
28177;DHT22;15461;41.652;9.378;2022-08-06T14:53:03;32.70;99.90
28177;DHT22;15461;41.652;9.378;2022-08-06T14:55:29;32.70;99.90
28177;DHT22;15461;41.652;9.378;2022-08-06T14:57:55;32.90;99.90
28177;DHT22;15461;41.652;9.378;2022-08-06T15:00:21;32.90;99.90
28177;DHT22;15461;41.652;9.378;2022-08-06T15:02:47;33.00;99.90
28177;DHT22;15461;41.652;9.378;2022-08-06T15:05:13;32.90;99.90
28177;DHT22;15461;41.652;9.378;2022-08-06T15:07:39;32.90;99.90
28177;DHT22;15461;41.652;9.378;2022-08-06T15:10:05;32.90;99.90
28177;DHT22;15461;41.652;9.378;2022-08-06T15:12:31;33.00;99.90
28177;DHT22;15461;41.652;9.378;2022-08-06T15:14:57;33.00;99.90
28177;DHT22;15461;41.652;9.378;2022-08-06T15:17:23;33.20;99.90
28177;DHT22;15461;41.652;9.378;2022-08-06T15:19:49;33.40;99.90
28177;DHT22;15461;41.652;9.378;2022-08-06T15:22:15;33.40;99.90
28177;DHT22;15461;41.652;9.378;2022-08-06T15:24:41;33.40;99.90
28177;DHT22;15461;41.652;9.378;2022-08-06T15:27:07;33.40;99.90
28177;DHT22;15461;41.652;9.378;2022-08-06T15:29:33;33.10;99.90
28177;DHT22;15461;41.652;9.378;2022-08-06T15:31:59;33.00;99.90
28177;DHT22;15461;41.652;9.378;2022-08-06T15:34:28;32.90;99.90
28177;DHT22;15461;41.652;9.378;2022-08-06T15:36:55;32.80;99.90
28177;DHT22;15461;41.652;9.378;2022-08-06T15:39:23;32.70;99.90
28177;DHT22;15461;41.652;9.378;2022-08-06T15:41:49;32.70;99.90
28177;DHT22;15461;41.652;9.378;2022-08-06T15:44:15;32.50;99.90
28177;DHT22;15461;41.652;9.378;2022-08-06T15:46:41;32.40;99.90
28177;DHT22;15461;41.652;9.378;2022-08-06T15:49:07;32.30;99.90
28177;DHT22;15461;41.652;9.378;2022-08-06T15:51:33;32.50;99.90
28177;DHT22;15461;41.652;9.378;2022-08-06T15:54:01;32.60;99.90
28177;DHT22;15461;41.652;9.378;2022-08-06T15:56:27;32.70;99.90
28177;DHT22;15461;41.652;9.378;2022-08-06T15:58:56;32.80;99.90
28177;DHT22;15461;41.652;9.378;2022-08-06T16:01:22;32.80;99.90
28177;DHT22;15461;41.652;9.378;2022-08-06T16:03:48;32.70;99.90
28177;DHT22;15461;41.652;9.378;2022-08-06T16:06:14;32.70;99.90
28177;DHT22;15461;41.652;9.378;2022-08-06T16:08:40;32.90;99.90
28177;DHT22;15461;41.652;9.378;2022-08-06T16:11:06;33.00;99.90
28177;DHT22;15461;41.652;9.378;2022-08-06T16:13:32;32.80;99.90
28177;DHT22;15461;41.652;9.378;2022-08-06T16:16:01;32.80;99.90
28177;DHT22;15461;41.652;9.378;2022-08-06T16:18:27;32.70;99.90
28177;DHT22;15461;41.652;9.378;2022-08-06T16:20:56;32.60;99.90
28177;DHT22;15461;41.652;9.378;2022-08-06T16:23:22;32.60;99.90
28177;DHT22;15461;41.652;9.378;2022-08-06T16:25:48;32.60;99.90
28177;DHT22;15461;41.652;9.378;2022-08-06T16:28:14;32.50;99.90
28177;DHT22;15461;41.652;9.378;2022-08-06T16:30:40;32.50;99.90
28177;DHT22;15461;41.652;9.378;2022-08-06T16:33:07;32.40;99.90
28177;DHT22;15461;41.652;9.378;2022-08-06T16:35:33;32.50;99.90
28177;DHT22;15461;41.652;9.378;2022-08-06T16:38:02;32.50;99.90
28177;DHT22;15461;41.652;9.378;2022-08-06T16:40:29;32.40;99.90
28177;DHT22;15461;41.652;9.378;2022-08-06T16:42:56;32.50;99.90
28177;DHT22;15461;41.652;9.378;2022-08-06T16:45:23;32.40;99.90
28177;DHT22;15461;41.652;9.378;2022-08-06T16:47:51;32.40;99.90
28177;DHT22;15461;41.652;9.378;2022-08-06T16:50:19;32.60;99.90
28177;DHT22;15461;41.652;9.378;2022-08-06T16:52:45;32.80;99.90
28177;DHT22;15461;41.652;9.378;2022-08-06T16:55:11;32.80;99.90
28177;DHT22;15461;41.652;9.378;2022-08-06T16:57:38;32.80;99.90
28177;DHT22;15461;41.652;9.378;2022-08-06T17:00:08;32.90;99.90